Terminal Aerodrome Forecast
Issued by NWS

Home | Current Version | Previous Version | Text Only | Print | Product List | Glossary On
Versions: 1 2 3 4 5 6 7 8 9 10 11 12 13 14 15 16 17
000
FTAK31 PAJN 191100
TAFAPG
TAF
PAPG 191133Z 1912/2012 18008G15KT 6SM BR VCSH BKN030 OVC050
     FM191500 10006KT P6SM -SHRA BKN020 OVC035
     FM192000 10008KT 5SM -RA BR BKN020 OVC035
     FM200100 14008KT P6SM VCSH SCT025 OVC040
     FM200600 12010KT 4SM -RA SCT010 BKN025
      AMD LTD TO CLD VIS AND WIND 1912/1915=

USA.gov is the U.S. government's official web portal to all federal, state and local government web resources and services.